Time;durP1;ratioP1;P1;durP2;ratioP2;P2;SDS_P1;SDS_P2;PMS_P1;PMS_P2;Temp;Humidity;BMP_temperature;BMP_pressure;BME280_temperature;BME280_humidity;BME280_pressure;Samples;Min_cycle;Max_cycle;Signal;HPM_P1;HPM_P2
2022/04/05 00:01:23;;;;;;;21.85;3.75;;;8.40;99.90;;;;;;6093198;23;20022;-85
2022/04/05 00:03:48;;;;;;;22.38;3.88;;;8.50;99.90;;;;;;6094079;23;20125;-85
2022/04/05 00:06:14;;;;;;;15.75;4.07;;;8.50;99.90;;;;;;6091466;23;20418;-85
2022/04/05 00:08:40;;;;;;;24.80;4.30;;;8.40;99.90;;;;;;6094415;23;20018;-85
2022/04/05 00:11:05;;;;;;;15.25;4.10;;;8.00;99.90;;;;;;6093489;23;20101;-86
2022/04/05 00:13:31;;;;;;;26.30;4.15;;;10.30;99.90;;;;;;6068800;23;20501;-86
2022/04/05 00:15:57;;;;;;;31.60;4.60;;;8.60;99.90;;;;;;6020830;23;20026;-86
2022/04/05 00:18:22;;;;;;;22.70;3.92;;;8.40;99.90;;;;;;6094160;23;20116;-85
2022/04/05 00:20:48;;;;;;;25.45;4.20;;;8.40;99.90;;;;;;6093758;23;20446;-85
2022/04/05 00:23:15;;;;;;;27.40;4.13;;;11.00;99.90;;;;;;6091520;23;20558;-86
2022/04/05 00:25:41;;;;;;;18.55;3.42;;;8.30;99.90;;;;;;6094230;23;20018;-86
2022/04/05 00:28:07;;;;;;;15.50;3.38;;;9.10;99.90;;;;;;6067877;23;20101;-85
2022/04/05 00:30:33;;;;;;;11.30;2.83;;;8.20;99.90;;;;;;6068565;23;20029;-85
2022/04/05 00:32:59;;;;;;;17.08;3.60;;;9.40;99.90;;;;;;6067600;23;20019;-86
2022/04/05 00:35:25;;;;;;;20.88;3.10;;;8.50;99.90;;;;;;6093497;23;20020;-86
2022/04/05 00:37:51;;;;;;;21.10;3.40;;;8.80;99.90;;;;;;6094473;23;20019;-85
2022/04/05 00:40:17;;;;;;;15.05;3.35;;;8.10;99.90;;;;;;6067474;23;20106;-85
2022/04/05 00:42:43;;;;;;;26.27;3.65;;;9.80;99.90;;;;;;6068324;23;20061;-85
2022/04/05 00:45:09;;;;;;;21.58;3.20;;;8.70;99.90;;;;;;6093631;23;20092;-85
2022/04/05 00:47:36;;;;;;;16.25;3.10;;;8.70;99.90;;;;;;6093635;23;20442;-85
2022/04/05 00:50:04;;;;;;;25.60;3.22;;;8.80;99.90;;;;;;6067730;23;20022;-85
2022/04/05 00:52:30;;;;;;;11.48;3.20;;;8.40;99.90;;;;;;6068283;23;20018;-85
2022/04/05 00:54:58;;;;;;;21.75;3.50;;;9.10;99.90;;;;;;6093635;23;20018;-85
2022/04/05 00:57:26;;;;;;;18.67;3.20;;;9.20;99.90;;;;;;6067380;23;20027;-85
2022/04/05 00:59:59;;;;;;;20.50;3.50;;;8.30;99.90;;;;;;6044386;23;20073;-85
2022/04/05 01:02:36;;;;;;;8.98;2.45;;;8.70;99.90;;;;;;6068393;23;20085;-85
2022/04/05 01:05:02;;;;;;;15.90;3.13;;;9.30;99.90;;;;;;6092067;23;20097;-85
2022/04/05 01:07:31;;;;;;;14.55;3.45;;;9.10;99.90;;;;;;6093421;23;20073;-85
2022/04/05 01:09:58;;;;;;;17.73;3.45;;;8.90;99.90;;;;;;6093957;23;20084;-85
2022/04/05 01:12:24;;;;;;;14.60;3.53;;;7.00;99.90;;;;;;6091535;23;20097;-84
2022/04/05 01:14:51;;;;;;;23.80;3.38;;;11.20;99.90;;;;;;6093286;23;20117;-85
2022/04/05 01:17:17;;;;;;;16.17;3.25;;;7.90;99.90;;;;;;6094912;23;20109;-85
2022/04/05 01:19:44;;;;;;;17.77;3.42;;;10.70;99.90;;;;;;6069925;23;20061;-85
2022/04/05 01:22:10;;;;;;;19.33;3.38;;;8.70;99.90;;;;;;6070417;23;20021;-85
2022/04/05 01:24:36;;;;;;;20.35;3.53;;;9.70;99.90;;;;;;6070705;23;20022;-84
2022/04/05 01:27:04;;;;;;;12.68;3.15;;;8.20;99.90;;;;;;6071224;23;20149;-85
2022/04/05 01:29:30;;;;;;;23.02;3.70;;;8.90;99.90;;;;;;6071436;23;20018;-85
2022/04/05 01:31:59;;;;;;;20.40;3.60;;;8.60;99.90;;;;;;6070412;23;20093;-85
2022/04/05 01:34:26;;;;;;;15.38;3.28;;;10.30;99.90;;;;;;6070191;23;20275;-85
2022/04/05 01:36:54;;;;;;;18.30;3.63;;;9.20;99.90;;;;;;6095984;23;20093;-85
2022/04/05 01:39:21;;;;;;;;;;;9.10;99.90;;;;;;6098165;23;20018;-84
2022/04/05 01:41:54;;;;;;;24.63;3.50;;;10.60;99.90;;;;;;6071295;23;19917;-85
2022/04/05 01:44:20;;;;;;;14.23;3.45;;;7.60;99.90;;;;;;6097402;23;20082;-84
2022/04/05 01:46:46;;;;;;;11.25;3.17;;;8.50;99.90;;;;;;6071489;23;20310;-85
2022/04/05 01:49:16;;;;;;;19.58;3.80;;;9.30;99.90;;;;;;6096353;23;20019;-85
2022/04/05 01:51:43;;;;;;;21.45;3.63;;;8.90;99.90;;;;;;6045967;23;20534;-86
2022/04/05 01:54:11;;;;;;;23.45;3.58;;;8.90;99.90;;;;;;6094200;23;20350;-86
2022/04/05 01:56:49;;;;;;;23.15;3.00;;;9.00;99.90;;;;;;6096269;23;20022;-86
2022/04/05 01:59:20;;;;;;;18.77;3.63;;;9.20;99.90;;;;;;6070118;23;20022;-85
2022/04/05 02:01:47;;;;;;;22.80;3.35;;;8.30;99.90;;;;;;6095419;23;20014;-85
2022/04/05 02:04:14;;;;;;;18.83;3.53;;;8.70;99.90;;;;;;6095256;23;20026;-85
2022/04/05 02:06:41;;;;;;;23.65;3.50;;;8.60;99.90;;;;;;6069391;23;20037;-85
2022/04/05 02:09:07;;;;;;;14.23;3.10;;;8.50;99.90;;;;;;6095246;23;20022;-85
2022/04/05 02:11:33;;;;;;;20.73;3.70;;;;;;;;;;6045961;23;20390;-85
2022/04/05 02:13:59;;;;;;;19.05;3.80;;;8.50;99.90;;;;;;6070070;23;20022;-85
2022/04/05 02:16:26;;;;;;;21.13;3.38;;;8.40;99.90;;;;;;6069139;23;20476;-85
2022/04/05 02:18:52;;;;;;;16.08;3.47;;;8.60;99.90;;;;;;6095667;23;20049;-85
2022/04/05 02:21:18;;;;;;;23.55;3.85;;;;;;;;;;6069297;23;20023;-85
2022/04/05 02:23:44;;;;;;;27.23;4.28;;;9.00;99.90;;;;;;6070035;23;20092;-85
2022/04/05 02:26:11;;;;;;;17.73;3.35;;;8.40;99.90;;;;;;6095053;23;20093;-85
2022/04/05 02:28:37;;;;;;;18.95;3.60;;;7.50;99.90;;;;;;6068602;23;20018;-85
2022/04/05 02:31:03;;;;;;;17.98;3.22;;;9.50;99.90;;;;;;6069985;23;20081;-85
2022/04/05 02:33:29;;;;;;;26.63;3.88;;;8.30;99.90;;;;;;6094559;23;20022;-85
2022/04/05 02:35:55;;;;;;;20.48;4.35;;;9.10;99.90;;;;;;6094938;23;20014;-85
2022/04/05 02:38:20;;;;;;;23.88;4.35;;;8.80;99.90;;;;;;6069174;23;20415;-85
2022/04/05 02:40:46;;;;;;;25.10;4.20;;;11.20;99.90;;;;;;6069966;23;20034;-85
2022/04/05 02:43:12;;;;;;;30.60;4.95;;;8.40;99.90;;;;;;6094849;23;20442;-85
2022/04/05 02:45:38;;;;;;;26.00;4.63;;;7.80;99.90;;;;;;6069445;23;20180;-85
2022/04/05 02:48:04;;;;;;;28.00;4.63;;;10.40;99.90;;;;;;6092662;23;20026;-85
2022/04/05 02:50:30;;;;;;;20.67;4.47;;;9.10;99.90;;;;;;6094606;23;20061;-85
2022/04/05 02:52:55;;;;;;;24.02;5.32;;;9.20;99.90;;;;;;6093518;23;20093;-84
2022/04/05 02:55:21;;;;;;;32.75;6.25;;;8.50;99.90;;;;;;6094528;23;20121;-85
2022/04/05 02:57:47;;;;;;;24.60;6.55;;;9.50;99.90;;;;;;6069504;23;20026;-85
2022/04/05 03:00:17;;;;;;;30.77;6.05;;;7.90;99.90;;;;;;6094837;23;20018;-84
2022/04/05 03:02:44;;;;;;;25.77;5.65;;;8.20;99.90;;;;;;6069003;23;20095;-84
2022/04/05 03:05:10;;;;;;;24.08;6.20;;;8.40;99.90;;;;;;6093738;23;20208;-85
2022/04/05 03:07:37;;;;;;;34.05;6.80;;;11.20;99.90;;;;;;6095208;23;20018;-85
2022/04/05 03:10:06;;;;;;;32.80;6.95;;;9.20;99.90;;;;;;6068845;23;20457;-85
2022/04/05 03:12:33;;;;;;;31.55;7.68;;;9.10;99.90;;;;;;6068092;23;20019;-84
2022/04/05 03:14:58;;;;;;;28.73;7.57;;;11.60;99.90;;;;;;6094070;23;20061;-84
2022/04/05 03:17:24;;;;;;;25.92;7.07;;;8.60;99.90;;;;;;6068338;23;20033;-85
2022/04/05 03:19:53;;;;;;;22.60;6.60;;;10.70;99.90;;;;;;6044189;23;20494;-85
2022/04/05 03:22:18;;;;;;;37.03;8.25;;;8.70;99.90;;;;;;6094384;23;20050;-85
2022/04/05 03:24:44;;;;;;;33.67;7.07;;;10.60;99.90;;;;;;6068648;23;20041;-85
2022/04/05 03:27:10;;;;;;;31.35;7.75;;;8.90;99.90;;;;;;6094305;23;20026;-84
2022/04/05 03:29:36;;;;;;;29.63;7.30;;;10.00;99.90;;;;;;6021051;23;20050;-84
2022/04/05 03:32:02;;;;;;;34.15;7.97;;;9.10;99.90;;;;;;6093049;23;20014;-84
2022/04/05 03:34:28;;;;;;;35.10;8.45;;;8.60;99.90;;;;;;6093649;23;20524;-84
2022/04/05 03:36:54;;;;;;;25.27;7.22;;;11.30;99.90;;;;;;6068868;23;20438;-84
2022/04/05 03:39:20;;;;;;;21.52;6.40;;;9.30;99.90;;;;;;6068170;23;20101;-84
2022/04/05 03:41:46;;;;;;;32.50;7.22;;;9.60;99.90;;;;;;6094573;23;20050;-84
2022/04/05 03:44:12;;;;;;;21.80;6.63;;;7.30;99.90;;;;;;6093496;23;20022;-84
2022/04/05 03:46:38;;;;;;;30.30;6.55;;;10.50;99.90;;;;;;6094315;23;20053;-84
2022/04/05 03:49:04;;;;;;;29.40;6.40;;;8.60;99.90;;;;;;6069064;23;20030;-84
2022/04/05 03:51:30;;;;;;;33.00;6.55;;;9.60;99.90;;;;;;6067950;23;20215;-84
2022/04/05 03:53:56;;;;;;;27.48;6.65;;;;;;;;;;6068846;23;20018;-84
2022/04/05 03:56:23;;;;;;;35.10;7.35;;;9.20;99.90;;;;;;6094315;23;20029;-84
2022/04/05 03:58:52;;;;;;;36.42;6.40;;;10.90;99.90;;;;;;6094534;23;20326;-84
2022/04/05 04:01:18;;;;;;;35.63;6.55;;;8.50;99.90;;;;;;6093481;23;20040;-84
2022/04/05 04:03:44;;;;;;;35.15;7.15;;;9.50;99.90;;;;;;6044588;23;20476;-85
2022/04/05 04:06:09;;;;;;;43.72;6.97;;;9.80;99.90;;;;;;6067857;23;20033;-85
2022/04/05 04:08:35;;;;;;;36.05;6.72;;;9.70;99.90;;;;;;6043808;23;20168;-85
2022/04/05 04:11:02;;;;;;;40.28;7.03;;;8.10;99.90;;;;;;6068868;23;20085;-85
2022/04/05 04:13:28;;;;;;;36.25;6.68;;;8.50;99.90;;;;;;6092896;23;20029;-85
2022/04/05 04:15:56;;;;;;;35.35;6.47;;;9.90;99.90;;;;;;6093995;23;20026;-84
2022/04/05 04:18:22;;;;;;;36.38;7.28;;;8.40;99.90;;;;;;6067731;23;20097;-84
2022/04/05 04:20:48;;;;;;;44.47;7.85;;;7.80;99.90;;;;;;6068044;23;20058;-84
2022/04/05 04:23:15;;;;;;;45.67;7.00;;;8.40;99.90;;;;;;6067360;23;20026;-85
2022/04/05 04:25:41;;;;;;;38.47;6.93;;;7.70;99.90;;;;;;6093988;23;20022;-85
2022/04/05 04:28:08;;;;;;;43.97;7.38;;;7.50;99.90;;;;;;6044823;23;20028;-85
2022/04/05 04:30:34;;;;;;;24.90;6.22;;;7.60;99.90;;;;;;6093536;23;20065;-83
2022/04/05 04:33:00;;;;;;;35.58;6.28;;;10.40;99.90;;;;;;6091535;23;20018;-84
2022/04/05 04:35:27;;;;;;;32.97;5.90;;;8.10;99.90;;;;;;6067551;23;20029;-84
2022/04/05 04:37:52;;;;;;;32.10;6.63;;;9.70;99.90;;;;;;6092304;23;20073;-84
2022/04/05 04:40:18;;;;;;;50.88;7.57;;;8.10;99.90;;;;;;6020246;23;20030;-84
2022/04/05 04:42:44;;;;;;;33.63;6.05;;;7.00;99.90;;;;;;6090197;23;20403;-84
2022/04/05 04:45:10;;;;;;;34.20;6.57;;;9.00;99.90;;;;;;6093510;23;20029;-84
2022/04/05 04:47:36;;;;;;;37.67;7.13;;;8.90;99.90;;;;;;6092916;23;20061;-84
2022/04/05 04:50:02;;;;;;;51.13;6.55;;;7.20;99.90;;;;;;6093434;23;20025;-84
2022/04/05 04:52:28;;;;;;;40.42;7.30;;;7.30;99.90;;;;;;6093309;23;20014;-84
2022/04/05 04:54:54;;;;;;;23.77;6.75;;;8.00;99.90;;;;;;6092882;23;20019;-83
2022/04/05 04:57:22;;;;;;;33.08;6.82;;;8.20;99.90;;;;;;6092162;23;20018;-84
2022/04/05 04:59:47;;;;;;;36.75;6.80;;;10.10;99.90;;;;;;6067903;23;20446;-82
2022/04/05 05:02:13;;;;;;;47.25;7.57;;;8.70;99.90;;;;;;6093331;23;20098;-84
2022/04/05 05:04:39;;;;;;;31.65;7.38;;;8.00;99.90;;;;;;6062080;23;20107;-83
2022/04/05 05:07:06;;;;;;;47.85;7.20;;;8.90;99.90;;;;;;6065532;23;20022;-83
2022/04/05 05:09:32;;;;;;;32.40;7.15;;;9.00;99.90;;;;;;6063002;23;20430;-83
2022/04/05 05:11:58;;;;;;;22.02;6.78;;;10.20;99.90;;;;;;6062894;23;20027;-84
2022/04/05 05:14:24;;;;;;;32.67;7.03;;;7.50;99.90;;;;;;6062266;23;20022;-84
2022/04/05 05:16:49;;;;;;;35.72;7.55;;;8.50;99.90;;;;;;6064746;23;20042;-83
2022/04/05 05:19:15;;;;;;;29.92;7.28;;;8.10;99.90;;;;;;6064991;23;20078;-83
2022/04/05 05:21:41;;;;;;;22.27;6.65;;;7.40;99.90;;;;;;6062557;23;20086;-83
2022/04/05 05:24:06;;;;;;;36.92;7.25;;;10.00;99.90;;;;;;6087445;23;20029;-83
2022/04/05 05:26:32;;;;;;;27.77;6.85;;;8.20;99.90;;;;;;6064670;23;20427;-84
2022/04/05 05:28:58;;;;;;;31.55;7.40;;;7.80;99.90;;;;;;6065184;23;20019;-84
2022/04/05 05:31:23;;;;;;;28.92;6.93;;;8.10;99.90;;;;;;6064434;23;20058;-84
2022/04/05 05:33:49;;;;;;;38.03;8.20;;;7.80;99.90;;;;;;6016098;23;20450;-84
2022/04/05 05:36:15;;;;;;;29.60;7.07;;;9.80;99.90;;;;;;6064400;23;20023;-84
2022/04/05 05:38:40;;;;;;;31.05;7.25;;;10.60;99.90;;;;;;6063067;23;20019;-84
2022/04/05 05:41:06;;;;;;;34.85;7.00;;;8.00;99.90;;;;;;6039478;23;20023;-84
2022/04/05 05:43:33;;;;;;;30.98;7.05;;;7.70;99.90;;;;;;6062652;23;20058;-84
2022/04/05 05:45:59;;;;;;;37.45;6.13;;;7.50;99.90;;;;;;6039650;23;20018;-85
2022/04/05 05:48:24;;;;;;;28.90;6.05;;;7.60;99.90;;;;;;6063945;23;20030;-84
2022/04/05 05:50:51;;;;;;;31.02;7.25;;;10.30;99.90;;;;;;6063071;23;20437;-83
2022/04/05 05:53:17;;;;;;;25.75;6.55;;;;;;;;;;6087005;23;20141;-84
2022/04/05 05:55:44;;;;;;;28.77;5.90;;;7.60;99.90;;;;;;6064346;23;20395;-84
2022/04/05 05:58:10;;;;;;;28.55;5.68;;;7.50;99.90;;;;;;6064726;23;20019;-84
2022/04/05 06:00:36;;;;;;;31.92;5.40;;;7.30;99.90;;;;;;6064336;23;20485;-84
2022/04/05 06:03:03;;;;;;;33.42;5.78;;;8.40;99.90;;;;;;6065827;23;20027;-85
2022/04/05 06:05:30;;;;;;;21.42;5.93;;;7.60;99.90;;;;;;6062684;23;20027;-84
2022/04/05 06:07:56;;;;;;;22.33;5.53;;;7.70;99.90;;;;;;6066475;23;20027;-84
2022/04/05 06:10:22;;;;;;;20.88;4.93;;;9.40;99.90;;;;;;6066870;23;20046;-84
2022/04/05 06:12:50;;;;;;;24.92;6.38;;;8.30;99.90;;;;;;6064214;23;20447;-85
2022/04/05 06:15:17;;;;;;;;;;;10.10;99.90;;;;;;6066422;23;20050;-84
2022/04/05 06:17:48;;;;;;;25.15;5.43;;;7.60;99.90;;;;;;6065994;23;20425;-84
2022/04/05 06:20:16;;;;;;;18.52;5.65;;;7.60;99.90;;;;;;6064517;23;20026;-84
2022/04/05 06:23:03;;;;;;;32.85;5.88;;;9.70;99.90;;;;;;6065759;23;20057;-84
2022/04/05 06:25:31;;;;;;;25.95;4.75;;;8.10;99.90;;;;;;6040779;23;20023;-84
2022/04/05 06:28:01;;;;;;;20.08;4.72;;;7.50;99.90;;;;;;6066894;23;20057;-84
2022/04/05 06:30:27;;;;;;;21.83;5.00;;;;;;;;;;6040938;23;20518;-85
2022/04/05 06:33:09;;;;;;;31.88;5.32;;;8.20;99.90;;;;;;6064337;23;20070;-84
2022/04/05 06:35:39;;;;;;;22.25;4.57;;;9.40;99.90;;;;;;6065195;23;20065;-84
2022/04/05 06:38:08;;;;;;;17.90;4.78;;;8.70;99.90;;;;;;6064544;23;20097;-86
2022/04/05 06:40:34;;;;;;;14.68;4.22;;;;;;;;;;6066445;23;20034;-83
2022/04/05 06:43:00;;;;;;;21.63;5.40;;;8.90;99.90;;;;;;6066649;23;20023;-83
2022/04/05 06:45:26;;;;;;;17.90;4.18;;;;;;;;;;6065159;23;20022;-83
2022/04/05 06:47:52;;;;;;;22.27;4.80;;;8.90;99.90;;;;;;6040165;23;20027;-84
2022/04/05 06:50:24;;;;;;;20.55;4.57;;;9.60;99.90;;;;;;6088211;23;20014;-83
2022/04/05 06:52:50;;;;;;;20.05;4.50;;;;;;;;;;6065778;23;20459;-83
2022/04/05 06:55:16;;;;;;;26.92;5.03;;;8.30;99.90;;;;;;6066808;23;20030;-84
2022/04/05 06:57:42;;;;;;;21.08;4.75;;;8.80;99.90;;;;;;6040535;23;20048;-84
2022/04/05 07:00:10;;;;;;;21.77;5.43;;;11.50;99.90;;;;;;6040957;23;20026;-84
2022/04/05 07:02:36;;;;;;;18.08;4.75;;;9.20;99.90;;;;;;6087996;23;20036;-84
2022/04/05 07:05:03;;;;;;;28.73;6.05;;;9.10;99.90;;;;;;6064157;23;20023;-84
2022/04/05 07:07:29;;;;;;;20.85;5.18;;;9.50;99.90;;;;;;6064353;23;20023;-85
2022/04/05 07:09:57;;;;;;;32.47;5.43;;;8.50;99.90;;;;;;6066532;23;20106;-84
2022/04/05 07:12:24;;;;;;;24.27;5.85;;;;;;;;;;6066574;23;20339;-84
2022/04/05 07:14:51;;;;;;;21.05;5.55;;;9.30;99.90;;;;;;6016983;23;20061;-84
2022/04/05 07:17:17;;;;;;;19.97;4.73;;;;;;;;;;6066123;23;20026;-84
2022/04/05 07:19:43;;;;;;;22.17;4.63;;;9.40;99.90;;;;;;6039118;23;20251;-85
2022/04/05 07:22:08;;;;;;;14.52;4.10;;;7.50;99.90;;;;;;6066046;23;20442;-84
2022/04/05 07:24:34;;;;;;;21.23;4.97;;;11.50;99.90;;;;;;6063495;23;20066;-84
2022/04/05 07:27:00;;;;;;;18.85;4.32;;;7.20;99.90;;;;;;6065070;23;20034;-84
2022/04/05 07:29:26;;;;;;;21.45;4.65;;;8.90;99.90;;;;;;6064315;23;20360;-84
2022/04/05 07:31:52;;;;;;;14.75;4.85;;;9.60;99.90;;;;;;6063588;23;20330;-84
2022/04/05 07:34:18;;;;;;;16.65;4.95;;;10.70;99.90;;;;;;6088606;23;20465;-84
2022/04/05 07:36:44;;;;;;;23.02;4.85;;;9.10;99.90;;;;;;6065629;23;20023;-84
2022/04/05 07:39:10;;;;;;;24.38;4.32;;;;;;;;;;6064547;23;20026;-84
2022/04/05 07:41:36;;;;;;;27.70;4.78;;;;;;;;;;6065848;23;20070;-84
2022/04/05 07:44:03;;;;;;;19.20;4.20;;;9.50;99.90;;;;;;6065821;23;20034;-83
2022/04/05 07:46:28;;;;;;;13.18;3.88;;;9.50;99.90;;;;;;6063854;23;20045;-83
2022/04/05 07:48:54;;;;;;;25.33;5.07;;;;;;;;;;6039814;23;20471;-84
2022/04/05 07:51:20;;;;;;;15.35;4.05;;;8.80;99.90;;;;;;6064097;23;20447;-83
2022/04/05 07:53:46;;;;;;;15.65;4.25;;;9.50;99.90;;;;;;6063650;23;20026;-84
2022/04/05 07:56:14;;;;;;;18.00;3.42;;;9.00;99.90;;;;;;6065793;23;20019;-84
2022/04/05 07:58:42;;;;;;;14.13;3.67;;;9.10;99.90;;;;;;6039815;23;20025;-83
2022/04/05 08:01:09;;;;;;;14.95;3.70;;;9.30;99.90;;;;;;6063972;23;20439;-84
2022/04/05 08:03:36;;;;;;;13.43;4.13;;;9.50;99.90;;;;;;6069645;23;20026;-85
2022/04/05 08:06:02;;;;;;;19.63;4.20;;;9.50;99.90;;;;;;6068294;23;20425;-84
2022/04/05 08:08:29;;;;;;;16.15;3.80;;;10.00;99.90;;;;;;6092677;23;20025;-84
2022/04/05 08:10:55;;;;;;;14.73;3.63;;;11.40;99.90;;;;;;6092701;23;20129;-84
2022/04/05 08:13:21;;;;;;;15.85;4.25;;;9.50;99.90;;;;;;6068314;23;20112;-84
2022/04/05 08:15:50;;;;;;;17.63;3.33;;;11.30;99.90;;;;;;6094237;23;20053;-83
2022/04/05 08:18:15;;;;;;;19.13;4.32;;;10.50;99.90;;;;;;6068457;23;20093;-84
2022/04/05 08:20:41;;;;;;;14.05;4.10;;;10.30;99.90;;;;;;6093282;23;20398;-84
2022/04/05 08:23:09;;;;;;;13.63;4.18;;;11.70;99.90;;;;;;6094189;23;20014;-84
2022/04/05 08:25:36;;;;;;;11.32;3.42;;;9.50;99.90;;;;;;6092084;23;20354;-84
2022/04/05 08:28:02;;;;;;;15.63;4.00;;;10.20;99.90;;;;;;6092416;23;20022;-83
2022/04/05 08:30:28;;;;;;;13.52;3.75;;;9.60;99.90;;;;;;6094360;23;20093;-84
2022/04/05 08:32:54;;;;;;;14.85;4.13;;;10.00;99.90;;;;;;6067898;23;20053;-84
2022/04/05 08:35:21;;;;;;;15.05;5.38;;;12.10;99.90;;;;;;6093796;23;20479;-84
2022/04/05 08:37:49;;;;;;;11.80;4.15;;;12.40;99.90;;;;;;6093137;23;20430;-84
2022/04/05 08:40:16;;;;;;;14.68;5.97;;;9.70;99.90;;;;;;6092735;23;20010;-84
2022/04/05 08:42:49;;;;;;;14.35;4.05;;;10.20;99.90;;;;;;6093785;23;20422;-84
2022/04/05 08:45:16;;;;;;;14.68;3.50;;;10.20;99.90;;;;;;6069017;23;20313;-84
2022/04/05 08:47:47;;;;;;;18.15;3.63;;;9.80;99.90;;;;;;6067981;23;20014;-84
2022/04/05 08:50:34;;;;;;;18.45;4.55;;;9.80;99.90;;;;;;6043728;23;20023;-83
2022/04/05 08:53:01;;;;;;;16.30;4.07;;;11.40;99.90;;;;;;6068296;23;20034;-84
2022/04/05 08:55:28;;;;;;;11.00;3.38;;;10.50;99.90;;;;;;6068195;23;20061;-84
2022/04/05 08:57:56;;;;;;;13.02;4.25;;;10.60;99.90;;;;;;6068553;23;20354;-83
2022/04/05 09:00:23;;;;;;;12.50;3.58;;;10.70;99.90;;;;;;6068947;23;20025;-84
2022/04/05 09:02:58;;;;;;;11.10;3.47;;;11.30;99.90;;;;;;6093234;23;20136;-84
2022/04/05 09:05:44;;;;;;;18.85;4.22;;;12.40;99.90;;;;;;6094151;23;20334;-84
2022/04/05 09:08:28;;;;;;;12.73;4.38;;;11.10;99.90;;;;;;6068212;23;20101;-84
2022/04/05 09:11:03;;;;;;;15.65;4.18;;;11.20;99.90;;;;;;6068367;23;20406;-84
2022/04/05 09:13:32;;;;;;;20.15;4.35;;;10.90;99.90;;;;;;6094250;23;20015;-84
2022/04/05 09:15:59;;;;;;;9.05;3.50;;;10.90;99.90;;;;;;6093832;23;20018;-84
2022/04/05 09:18:30;;;;;;;10.05;3.13;;;12.70;99.90;;;;;;6068171;23;20430;-84
2022/04/05 09:20:56;;;;;;;12.90;3.33;;;11.10;99.90;;;;;;6067360;23;20342;-83
2022/04/05 09:23:31;;;;;;;11.95;3.30;;;11.50;99.90;;;;;;6094332;23;20025;-84
2022/04/05 09:26:03;;;;;;;12.18;3.30;;;10.60;99.90;;;;;;6093998;23;20026;-83
2022/04/05 09:28:31;;;;;;;8.35;3.38;;;11.80;99.90;;;;;;6094192;23;20032;-84
2022/04/05 09:31:03;;;;;;;8.50;3.05;;;10.80;99.90;;;;;;6067900;23;20101;-83
2022/04/05 09:33:33;;;;;;;13.48;3.92;;;11.10;99.90;;;;;;6092905;23;20029;-83
2022/04/05 09:36:12;;;;;;;11.65;3.00;;;11.30;99.90;;;;;;6043987;23;20023;-84
2022/04/05 09:38:42;;;;;;;16.30;4.43;;;11.30;99.90;;;;;;6094077;23;20065;-84
2022/04/05 09:41:28;;;;;;;10.90;3.97;;;10.80;99.90;;;;;;6070022;23;20026;-84
2022/04/05 09:44:03;;;;;;;11.13;3.80;;;11.60;99.90;;;;;;6095327;23;20030;-84
2022/04/05 09:46:33;;;;;;;10.80;3.55;;;10.80;99.90;;;;;;6095284;23;20018;-84
2022/04/05 09:49:10;;;;;;;16.88;3.97;;;11.20;99.90;;;;;;6070025;23;20094;-83
2022/04/05 09:51:47;;;;;;;18.57;4.20;;;11.40;99.90;;;;;;6095233;23;20019;-84
2022/04/05 09:54:27;;;;;;;13.75;4.63;;;11.10;99.90;;;;;;6095591;23;20361;-84
2022/04/05 09:57:13;;;;;;;8.40;3.85;;;10.70;99.90;;;;;;6095668;23;20018;-83
2022/04/05 09:59:45;;;;;;;14.38;4.53;;;10.80;99.90;;;;;;6069949;23;20073;-85
2022/04/05 10:02:17;;;;;;;10.13;4.03;;;10.90;99.90;;;;;;6070553;23;20054;-87
2022/04/05 10:05:09;;;;;;;13.88;3.88;;;10.50;99.90;;;;;;6095015;23;20081;-86
2022/04/05 10:07:36;;;;;;;14.55;4.75;;;11.00;99.90;;;;;;6046904;23;20026;-84
2022/04/05 10:10:07;;;;;;;11.90;3.55;;;11.10;99.90;;;;;;6093738;23;20372;-85
2022/04/05 10:12:39;;;;;;;12.45;3.55;;;11.10;99.90;;;;;;6046375;23;20037;-82
2022/04/05 10:15:05;;;;;;;7.07;3.13;;;11.80;99.90;;;;;;6095509;23;20557;-85
2022/04/05 10:17:32;;;;;;;10.00;3.22;;;10.70;99.90;;;;;;6093898;23;20335;-88
2022/04/05 10:19:57;;;;;;;7.72;3.42;;;11.20;99.90;;;;;;6021392;23;20029;-84
2022/04/05 10:22:25;;;;;;;8.50;3.17;;;13.50;99.90;;;;;;6070176;23;20010;-86
2022/04/05 10:24:54;;;;;;;8.63;3.20;;;10.90;99.90;;;;;;6095260;23;20367;-86
2022/04/05 10:27:22;;;;;;;7.50;3.33;;;11.10;99.90;;;;;;6070264;23;20027;-85
2022/04/05 10:30:05;;;;;;;7.40;3.08;;;11.00;99.90;;;;;;6045759;23;20033;-86
2022/04/05 10:32:43;;;;;;;8.18;3.53;;;11.30;99.90;;;;;;6069662;23;20014;-86
2022/04/05 10:35:11;;;;;;;11.27;4.00;;;11.30;99.90;;;;;;6069358;23;20033;-85
2022/04/05 10:37:38;;;;;;;10.55;3.38;;;11.60;99.90;;;;;;6046357;23;20018;-86
2022/04/05 10:40:10;;;;;;;11.32;3.83;;;;;;;;;;6045389;23;20458;-85
2022/04/05 10:42:38;;;;;;;9.32;3.88;;;11.50;99.90;;;;;;6096040;23;20054;-85
2022/04/05 10:45:25;;;;;;;14.60;3.63;;;11.70;99.90;;;;;;6095417;23;20077;-85
2022/04/05 10:48:21;;;;;;;9.35;3.85;;;11.40;99.90;;;;;;6068666;23;20137;-85
2022/04/05 10:51:07;;;;;;;12.60;4.13;;;12.00;99.90;;;;;;6045659;23;20019;-85
2022/04/05 10:53:34;;;;;;;9.93;4.68;;;12.10;99.90;;;;;;6095078;23;20019;-86
2022/04/05 10:56:14;;;;;;;10.30;4.40;;;11.80;99.90;;;;;;6094762;23;20026;-86
2022/04/05 10:59:01;;;;;;;9.63;4.22;;;11.60;99.90;;;;;;6095765;23;20018;-86
2022/04/05 11:01:43;;;;;;;10.90;3.97;;;12.20;99.90;;;;;;6057710;23;20058;-85
2022/04/05 11:04:17;;;;;;;9.68;4.15;;;11.80;99.90;;;;;;6068452;23;20073;-85
2022/04/05 11:07:01;;;;;;;11.65;4.28;;;11.50;99.90;;;;;;6093972;23;20093;-86
2022/04/05 11:09:39;;;;;;;9.25;3.90;;;12.40;99.90;;;;;;6093171;23;20022;-85
2022/04/05 11:12:10;;;;;;;8.98;4.28;;;13.10;99.90;;;;;;6068847;23;20102;-85
2022/04/05 11:14:51;;;;;;;8.85;3.83;;;12.40;99.90;;;;;;6095177;23;20022;-85
2022/04/05 11:17:23;;;;;;;8.52;4.03;;;12.20;99.90;;;;;;6068908;23;20029;-84
2022/04/05 11:19:51;;;;;;;12.20;4.75;;;12.80;99.90;;;;;;6093967;23;20469;-85
2022/04/05 11:22:19;;;;;;;10.00;4.95;;;13.60;99.90;;;;;;6092638;23;20089;-85
2022/04/05 11:25:09;;;;;;;9.45;4.88;;;13.30;99.90;;;;;;6095234;23;20029;-85
2022/04/05 11:27:35;;;;;;;;;;;13.20;99.90;;;;;;6063266;23;20132;-85
2022/04/05 11:30:22;;;;;;;9.45;4.47;;;14.20;99.90;;;;;;6069914;23;19923;-87
2022/04/05 11:33:09;;;;;;;15.10;4.10;;;13.00;99.90;;;;;;6095562;23;20097;-85
2022/04/05 11:35:36;;;;;;;9.10;4.00;;;12.80;99.90;;;;;;6068799;23;20077;-83
2022/04/05 11:38:03;;;;;;;10.00;3.80;;;13.00;99.90;;;;;;6094470;23;20018;-84
2022/04/05 11:40:32;;;;;;;9.15;4.45;;;12.90;99.90;;;;;;6095243;23;20019;-85
2022/04/05 11:43:03;;;;;;;7.50;3.42;;;13.50;99.90;;;;;;6068848;23;20029;-84
2022/04/05 11:45:30;;;;;;;8.93;4.55;;;13.50;99.90;;;;;;6093293;23;20065;-85
2022/04/05 11:47:56;;;;;;;10.00;3.90;;;13.30;99.90;;;;;;6094502;23;20022;-85
2022/04/05 11:50:22;;;;;;;8.10;3.40;;;13.70;99.90;;;;;;6095699;23;20041;-88
2022/04/05 11:52:48;;;;;;;9.52;3.70;;;13.60;99.90;;;;;;6096156;23;20023;-86
2022/04/05 11:58:26;;;;;;;7.95;3.38;;;13.20;99.90;;;;;;6037146;23;20019;-86
2022/04/05 12:00:54;;;;;;;8.10;3.65;;;13.10;99.90;;;;;;6037459;23;20025;-85
2022/04/05 12:03:19;;;;;;;9.82;4.03;;;13.10;99.90;;;;;;6043729;23;20338;-86
2022/04/05 12:05:46;;;;;;;7.50;3.15;;;12.90;99.90;;;;;;6100963;23;20032;-89
2022/04/05 12:08:13;;;;;;;8.90;4.00;;;12.80;99.90;;;;;;6077442;23;20015;-88
2022/04/05 12:10:41;;;;;;;10.65;4.22;;;13.80;99.90;;;;;;6080429;23;20489;-86
2022/04/05 12:13:07;;;;;;;;;;;13.80;99.90;;;;;;6105410;23;20018;-87
2022/04/05 12:15:34;;;;;;;9.48;4.18;;;13.20;99.90;;;;;;6105520;23;19967;-88
2022/04/05 12:18:20;;;;;;;11.98;4.53;;;13.00;99.90;;;;;;6104874;23;20026;-86
2022/04/05 12:20:57;;;;;;;11.20;4.05;;;13.00;99.90;;;;;;6106121;23;20022;-89
2022/04/05 12:23:29;;;;;;;8.65;4.32;;;12.80;99.90;;;;;;6109488;23;20093;-89
2022/04/05 12:26:24;;;;;;;10.35;4.35;;;12.70;99.90;;;;;;6084721;23;20034;-87
2022/04/05 12:28:53;;;;;;;9.68;4.53;;;12.60;99.90;;;;;;6099967;23;20022;-87
2022/04/05 12:31:22;;;;;;;10.63;4.85;;;12.40;99.90;;;;;;6060694;23;20049;-87
2022/04/05 12:33:55;;;;;;;11.30;5.07;;;12.40;99.90;;;;;;6108646;23;20018;-87
2022/04/05 12:36:22;;;;;;;11.68;5.40;;;12.40;99.90;;;;;;6112130;23;20354;-87
2022/04/05 12:38:48;;;;;;;10.38;5.22;;;12.40;99.90;;;;;;6115487;23;20011;-87
2022/04/05 12:41:16;;;;;;;13.35;6.18;;;12.70;99.90;;;;;;6113315;23;20033;-88
2022/04/05 12:43:42;;;;;;;14.55;5.60;;;12.70;99.90;;;;;;6062026;23;20022;-88
2022/04/05 12:46:12;;;;;;;15.63;6.40;;;12.70;99.90;;;;;;6112819;23;20026;-86
2022/04/05 12:48:40;;;;;;;16.65;6.05;;;12.80;99.90;;;;;;6115067;23;20084;-88
2022/04/05 12:51:06;;;;;;;16.08;6.90;;;13.00;99.90;;;;;;6116464;23;20018;-86
2022/04/05 12:53:37;;;;;;;21.65;7.07;;;13.10;99.90;;;;;;6117458;23;20013;-90
2022/04/05 12:56:09;;;;;;;16.02;7.38;;;13.10;99.90;;;;;;6112115;23;20038;-89
2022/04/05 12:58:46;;;;;;;13.38;6.35;;;13.30;99.90;;;;;;6113951;23;20028;-94